Time;durP1;ratioP1;P1;durP2;ratioP2;P2;SDS_P1;SDS_P2;PMS_P1;PMS_P2;Temp;Humidity;BMP_temperature;BMP_pressure;BME280_temperature;BME280_humidity;BME280_pressure;Samples;Min_cycle;Max_cycle;Signal;HPM_P1;HPM_P2
2021/05/30 00:01:07;;;;;;;33.10;19.42;;;5.20;99.90;;;;;;4991592;28;20052;-72
2021/05/30 00:03:34;;;;;;;35.03;19.90;;;5.10;99.90;;;;;;5015577;28;20078;-73
2021/05/30 00:06:01;;;;;;;37.05;21.23;;;5.10;99.90;;;;;;5023920;28;20056;-73
2021/05/30 00:08:28;;;;;;;33.67;19.60;;;5.20;99.90;;;;;;5025827;28;20115;-73
2021/05/30 00:10:56;;;;;;;39.33;21.58;;;5.30;99.90;;;;;;5025322;28;20053;-73
2021/05/30 00:13:23;;;;;;;41.08;21.42;;;5.20;99.90;;;;;;5042364;28;20041;-72
2021/05/30 00:15:49;;;;;;;39.17;22.38;;;5.20;99.90;;;;;;5024221;28;20068;-73
2021/05/30 00:18:16;;;;;;;37.95;20.88;;;5.10;99.90;;;;;;5009116;28;20056;-73
2021/05/30 00:20:43;;;;;;;37.83;20.23;;;5.00;99.90;;;;;;5011558;28;20109;-73
2021/05/30 00:23:10;;;;;;;34.83;22.13;;;5.00;99.90;;;;;;5005958;28;20303;-72
2021/05/30 00:25:37;;;;;;;37.35;20.67;;;5.00;99.90;;;;;;5023046;28;20056;-73
2021/05/30 00:28:08;;;;;;;38.55;22.73;;;5.00;99.90;;;;;;5022094;28;20389;-72
2021/05/30 00:30:35;;;;;;;45.88;23.50;;;4.90;99.90;;;;;;5023845;28;20520;-73
2021/05/30 00:33:01;;;;;;;40.78;21.13;;;5.00;99.90;;;;;;5006846;28;20468;-73
2021/05/30 00:35:28;;;;;;;51.13;23.65;;;5.00;99.90;;;;;;5016166;28;20056;-73
2021/05/30 00:37:55;;;;;;;45.85;22.90;;;4.90;99.90;;;;;;5021597;28;20509;-73
2021/05/30 00:40:22;;;;;;;44.13;24.15;;;4.90;99.90;;;;;;5011542;28;20162;-73
2021/05/30 00:42:49;;;;;;;49.60;26.02;;;4.90;99.90;;;;;;5034624;28;20526;-72
2021/05/30 00:45:15;;;;;;;55.45;27.90;;;5.00;99.90;;;;;;5024381;28;20505;-73
2021/05/30 00:47:42;;;;;;;52.25;26.63;;;5.10;99.90;;;;;;5045983;28;20053;-73
2021/05/30 00:50:10;;;;;;;44.92;23.05;;;4.90;99.90;;;;;;5013024;28;20658;-73
2021/05/30 00:52:40;;;;;;;45.00;24.48;;;4.90;99.90;;;;;;5008188;28;20060;-73
2021/05/30 00:55:09;;;;;;;40.92;22.88;;;4.90;99.90;;;;;;5009519;28;20045;-73
2021/05/30 00:57:36;;;;;;;36.92;21.58;;;4.80;99.90;;;;;;5009427;28;20687;-73
2021/05/30 01:00:06;;;;;;;35.00;20.70;;;4.80;99.90;;;;;;5025839;28;20060;-73
2021/05/30 01:02:33;;;;;;;40.45;21.20;;;4.60;99.90;;;;;;5021823;28;20099;-73
2021/05/30 01:05:00;;;;;;;39.05;21.73;;;4.60;99.90;;;;;;5006470;28;20045;-73
2021/05/30 01:07:27;;;;;;;32.67;20.30;;;4.50;99.90;;;;;;5022785;28;20533;-73
2021/05/30 01:09:53;;;;;;;34.08;20.42;;;4.60;99.90;;;;;;5041316;28;20350;-73
2021/05/30 01:12:21;;;;;;;42.75;24.02;;;4.50;99.90;;;;;;5014318;28;20052;-73
2021/05/30 01:14:49;;;;;;;48.53;24.00;;;4.50;99.90;;;;;;5045253;28;20053;-73
2021/05/30 01:17:17;;;;;;;46.40;24.10;;;4.60;99.90;;;;;;5025200;28;20131;-73
2021/05/30 01:19:46;;;;;;;49.13;25.23;;;4.60;99.90;;;;;;5017765;28;20054;-73
2021/05/30 01:22:14;;;;;;;54.25;25.27;;;4.60;99.90;;;;;;5008282;28;20081;-73
2021/05/30 01:24:41;;;;;;;70.32;30.55;;;4.60;99.90;;;;;;5027648;28;20057;-73
2021/05/30 01:27:07;;;;;;;54.10;26.98;;;4.70;99.90;;;;;;5009734;28;20083;-73
2021/05/30 01:29:34;;;;;;;56.45;26.73;;;4.70;99.90;;;;;;5027272;28;20049;-73
2021/05/30 01:32:01;;;;;;;57.25;28.50;;;4.60;99.90;;;;;;5009580;28;20111;-73
2021/05/30 01:34:28;;;;;;;58.80;27.77;;;4.60;99.90;;;;;;5007862;28;20420;-74
2021/05/30 01:36:54;;;;;;;47.63;22.75;;;4.60;99.90;;;;;;5002384;28;20060;-73
2021/05/30 01:39:21;;;;;;;47.80;23.23;;;4.60;99.90;;;;;;5008850;28;20033;-73
2021/05/30 01:41:48;;;;;;;51.05;25.20;;;4.50;99.90;;;;;;5029614;28;20102;-73
2021/05/30 01:44:14;;;;;;;56.80;25.77;;;4.40;99.90;;;;;;5043291;28;20044;-73
2021/05/30 01:46:41;;;;;;;56.85;27.05;;;4.50;99.90;;;;;;5007909;28;20065;-73
2021/05/30 01:49:08;;;;;;;62.30;28.35;;;4.40;99.90;;;;;;5002027;28;20045;-73
2021/05/30 01:51:37;;;;;;;65.68;29.25;;;4.40;99.90;;;;;;5016039;28;20095;-73
2021/05/30 01:54:09;;;;;;;52.42;24.55;;;4.40;99.90;;;;;;5041104;28;20053;-73
2021/05/30 01:56:55;;;;;;;51.28;25.73;;;4.30;99.90;;;;;;5024763;28;20555;-73
2021/05/30 01:59:26;;;;;;;51.15;25.52;;;4.30;99.90;;;;;;4994203;28;20045;-73
2021/05/30 02:01:57;;;;;;;54.55;25.63;;;4.30;99.90;;;;;;5025768;28;20455;-74
2021/05/30 02:04:29;;;;;;;61.45;26.27;;;4.30;99.90;;;;;;5026626;28;20052;-73
2021/05/30 02:06:58;;;;;;;65.30;29.23;;;4.30;99.90;;;;;;5018530;28;20053;-73
2021/05/30 02:09:27;;;;;;;79.70;31.30;;;4.30;99.90;;;;;;5025429;28;20136;-73
2021/05/30 02:11:53;;;;;;;53.08;25.42;;;4.30;99.90;;;;;;5024431;28;20127;-73
2021/05/30 02:14:20;;;;;;;44.78;21.85;;;4.30;99.90;;;;;;5021300;28;20075;-73
2021/05/30 02:16:48;;;;;;;50.90;24.75;;;4.20;99.90;;;;;;5017375;28;20230;-73
2021/05/30 02:19:15;;;;;;;49.72;25.20;;;4.10;99.90;;;;;;5022980;28;20038;-73
2021/05/30 02:21:48;;;;;;;52.80;24.27;;;4.20;99.90;;;;;;5018820;28;20049;-73
2021/05/30 02:24:17;;;;;;;50.42;24.98;;;4.10;99.90;;;;;;5026595;28;20446;-73
2021/05/30 02:26:44;;;;;;;52.03;24.38;;;4.10;99.90;;;;;;5025212;28;20049;-74
2021/05/30 02:29:36;;;;;;;50.70;24.58;;;4.10;99.90;;;;;;5026146;28;20560;-74
2021/05/30 02:32:05;;;;;;;46.35;23.98;;;4.00;99.90;;;;;;5043687;28;20053;-73
2021/05/30 02:34:32;;;;;;;50.63;23.90;;;4.00;99.90;;;;;;5044225;28;20045;-73
2021/05/30 02:37:00;;;;;;;51.78;25.75;;;4.00;99.90;;;;;;5024436;28;20608;-73
2021/05/30 02:39:27;;;;;;;51.17;24.42;;;3.90;99.90;;;;;;5009261;28;20122;-73
2021/05/30 02:41:54;;;;;;;53.75;26.17;;;3.90;99.90;;;;;;5008935;28;20053;-73
2021/05/30 02:44:20;;;;;;;53.38;26.67;;;3.90;99.90;;;;;;4995843;28;20319;-73
2021/05/30 02:46:47;;;;;;;60.35;27.65;;;4.20;99.90;;;;;;5018508;28;20279;-73
2021/05/30 02:49:15;;;;;;;54.13;26.33;;;4.30;99.90;;;;;;5006529;28;20381;-73
2021/05/30 02:51:42;;;;;;;58.65;27.83;;;4.30;99.90;;;;;;5024374;28;20144;-73
2021/05/30 02:54:10;;;;;;;52.22;25.25;;;4.20;99.90;;;;;;5021813;28;20102;-73
2021/05/30 02:56:37;;;;;;;49.97;25.35;;;4.00;99.90;;;;;;5042813;28;20419;-73
2021/05/30 02:59:04;;;;;;;52.35;23.95;;;3.90;99.90;;;;;;5009192;28;20061;-73
2021/05/30 03:01:30;;;;;;;49.08;25.42;;;3.90;99.90;;;;;;5043442;28;20110;-73
2021/05/30 03:03:57;;;;;;;53.58;25.65;;;3.80;99.90;;;;;;5008196;28;20338;-73
2021/05/30 03:06:25;;;;;;;53.25;25.67;;;3.90;99.90;;;;;;5024008;28;20147;-73
2021/05/30 03:08:52;;;;;;;62.78;27.73;;;4.00;99.90;;;;;;5019892;28;20049;-73
2021/05/30 03:11:20;;;;;;;57.97;27.15;;;3.90;99.90;;;;;;5042399;28;20076;-73
2021/05/30 03:13:50;;;;;;;67.57;29.65;;;3.80;99.90;;;;;;5024137;28;20120;-73
2021/05/30 03:16:17;;;;;;;54.50;24.60;;;3.90;99.90;;;;;;5024125;28;20045;-73
2021/05/30 03:18:44;;;;;;;60.33;26.27;;;3.90;99.90;;;;;;5025052;28;20040;-73
2021/05/30 03:21:13;;;;;;;49.05;26.05;;;3.90;99.90;;;;;;5012256;28;20084;-73
2021/05/30 03:23:40;;;;;;;46.35;23.42;;;4.00;99.90;;;;;;4992417;28;20052;-73
2021/05/30 03:26:07;;;;;;;56.00;25.27;;;3.80;99.90;;;;;;5023475;28;20041;-73
2021/05/30 03:28:34;;;;;;;56.50;24.73;;;3.80;99.90;;;;;;5024894;28;20041;-73
2021/05/30 03:31:01;;;;;;;51.85;25.48;;;3.80;99.90;;;;;;5008301;28;20060;-73
2021/05/30 03:33:27;;;;;;;62.20;26.33;;;3.80;99.90;;;;;;5024880;28;20133;-73
2021/05/30 03:35:58;;;;;;;54.10;24.00;;;3.90;99.90;;;;;;5023896;28;20044;-73
2021/05/30 03:38:26;;;;;;;65.05;25.75;;;3.90;99.90;;;;;;5005122;28;20068;-73
2021/05/30 03:41:01;;;;;;;60.25;25.27;;;4.10;99.90;;;;;;5020614;28;20048;-73
2021/05/30 03:43:29;;;;;;;;;;;4.30;99.90;;;;;;5013752;28;20159;-73
2021/05/30 03:45:56;;;;;;;69.72;25.38;;;4.40;99.90;;;;;;5020016;28;20303;-73
2021/05/30 03:48:23;;;;;;;69.07;26.67;;;4.50;99.90;;;;;;5008379;28;20485;-73
2021/05/30 03:50:50;;;;;;;68.72;27.08;;;4.50;99.90;;;;;;5009567;28;20481;-73
2021/05/30 03:53:18;;;;;;;52.92;23.83;;;4.60;99.90;;;;;;5004913;28;20072;-73
2021/05/30 03:55:46;;;;;;;66.00;27.52;;;4.50;99.90;;;;;;5000975;28;20041;-74
2021/05/30 03:58:13;;;;;;;59.90;24.58;;;4.50;99.90;;;;;;5022749;28;20110;-73
2021/05/30 04:00:41;;;;;;;56.13;23.23;;;4.50;99.90;;;;;;5004459;28;20056;-74
2021/05/30 04:03:09;;;;;;;44.95;20.95;;;4.40;99.90;;;;;;5024480;28;20052;-74
2021/05/30 04:05:36;;;;;;;44.33;20.85;;;4.50;99.90;;;;;;5041929;28;20463;-73
2021/05/30 04:08:03;;;;;;;42.53;21.13;;;4.30;99.90;;;;;;5024696;28;20458;-73
2021/05/30 04:10:30;;;;;;;50.38;23.10;;;4.20;99.90;;;;;;5007951;28;20531;-73
2021/05/30 04:12:56;;;;;;;43.05;20.80;;;4.30;99.90;;;;;;4991002;28;20052;-73
2021/05/30 04:15:23;;;;;;;47.28;21.92;;;4.40;99.90;;;;;;5005651;28;20348;-73
2021/05/30 04:17:50;;;;;;;43.55;21.52;;;4.40;99.90;;;;;;5008534;28;20087;-73
2021/05/30 04:20:20;;;;;;;42.83;20.88;;;4.40;99.90;;;;;;5006622;28;20064;-73
2021/05/30 04:22:47;;;;;;;41.03;20.45;;;4.40;99.90;;;;;;5006360;28;20050;-73
2021/05/30 04:25:16;;;;;;;37.63;20.17;;;4.40;99.90;;;;;;4993771;28;20396;-73
2021/05/30 04:27:45;;;;;;;38.67;19.23;;;4.40;99.90;;;;;;5012609;28;20056;-73
2021/05/30 04:30:14;;;;;;;46.60;23.27;;;4.40;99.90;;;;;;5046276;28;20441;-73
2021/05/30 04:32:42;;;;;;;41.45;21.27;;;4.60;99.90;;;;;;5012524;28;20436;-73
2021/05/30 04:35:10;;;;;;;40.90;20.90;;;4.80;99.90;;;;;;5045070;28;20257;-73
2021/05/30 04:37:37;;;;;;;40.08;19.27;;;5.20;99.90;;;;;;5025161;28;20048;-74
2021/05/30 04:40:05;;;;;;;32.00;18.70;;;5.50;99.90;;;;;;5014510;28;20045;-74
2021/05/30 04:42:32;;;;;;;26.23;14.93;;;5.70;99.90;;;;;;5010921;28;20041;-73
2021/05/30 04:44:59;;;;;;;24.45;14.50;;;6.10;99.90;;;;;;5028805;28;20053;-73
2021/05/30 04:47:28;;;;;;;26.45;17.08;;;6.30;99.90;;;;;;5006202;28;20148;-74
2021/05/30 04:49:55;;;;;;;30.23;16.33;;;6.60;99.90;;;;;;5023965;28;20438;-73
2021/05/30 04:52:22;;;;;;;28.17;16.13;;;6.90;99.90;;;;;;5011962;28;20057;-73
2021/05/30 04:54:49;;;;;;;23.85;15.38;;;7.20;99.90;;;;;;5011174;28;20099;-73
2021/05/30 04:57:16;;;;;;;21.27;14.23;;;7.60;99.90;;;;;;5027292;28;20056;-73
2021/05/30 04:59:43;;;;;;;19.70;15.13;;;8.00;99.90;;;;;;5046113;28;20408;-73
2021/05/30 05:02:10;;;;;;;19.92;13.75;;;8.30;99.90;;;;;;5011211;28;20057;-73
2021/05/30 05:04:37;;;;;;;21.42;14.18;;;8.50;99.90;;;;;;5028098;28;20055;-73
2021/05/30 05:07:04;;;;;;;15.23;12.85;;;8.80;99.90;;;;;;5026686;28;20611;-73
2021/05/30 05:09:31;;;;;;;17.73;14.05;;;9.20;99.90;;;;;;5007701;28;20140;-73
2021/05/30 05:11:58;;;;;;;17.42;14.52;;;9.40;99.90;;;;;;5026362;28;20051;-73
2021/05/30 05:14:25;;;;;;;17.30;14.90;;;9.90;99.90;;;;;;5008351;28;20133;-73
2021/05/30 05:16:51;;;;;;;16.65;14.20;;;10.20;99.90;;;;;;5020757;28;20421;-73
2021/05/30 05:19:18;;;;;;;17.23;15.40;;;10.80;99.90;;;;;;5020594;28;20056;-73
2021/05/30 05:21:45;;;;;;;17.65;14.27;;;10.80;99.90;;;;;;5031267;28;20192;-73
2021/05/30 05:24:12;;;;;;;19.45;15.65;;;11.20;99.90;;;;;;5005457;28;20680;-73
2021/05/30 05:26:38;;;;;;;16.98;14.77;;;11.50;99.90;;;;;;5010936;28;20052;-74
2021/05/30 05:29:05;;;;;;;17.25;15.45;;;11.80;99.90;;;;;;5027202;28;20056;-74
2021/05/30 05:31:32;;;;;;;18.05;16.33;;;12.20;99.90;;;;;;5026601;28;20134;-73
2021/05/30 05:33:59;;;;;;;19.52;17.67;;;12.30;99.90;;;;;;5026579;28;20044;-74
2021/05/30 05:36:26;;;;;;;20.13;18.02;;;12.40;99.90;;;;;;5025045;28;20044;-74
2021/05/30 05:38:53;;;;;;;19.23;17.23;;;12.80;99.90;;;;;;5043649;28;20056;-73
2021/05/30 05:41:19;;;;;;;20.40;17.42;;;13.00;99.90;;;;;;4997080;28;20077;-74
2021/05/30 05:43:46;;;;;;;20.73;18.45;;;13.20;99.90;;;;;;5011669;28;20106;-74
2021/05/30 05:46:13;;;;;;;21.40;18.88;;;13.50;99.90;;;;;;5006493;28;20503;-74
2021/05/30 05:48:40;;;;;;;19.15;17.35;;;13.70;99.90;;;;;;5020460;28;20041;-73
2021/05/30 05:51:07;;;;;;;18.90;16.90;;;13.80;99.90;;;;;;5008862;28;20050;-73
2021/05/30 05:53:33;;;;;;;16.67;15.07;;;13.90;99.90;;;;;;5023987;28;20467;-74
2021/05/30 05:56:00;;;;;;;16.80;15.23;;;14.10;99.90;;;;;;5005644;28;20517;-73
2021/05/30 05:58:27;;;;;;;17.88;16.13;;;14.30;99.90;;;;;;5025713;28;20570;-73
2021/05/30 06:00:54;;;;;;;17.05;15.77;;;14.70;99.90;;;;;;5021961;28;20114;-74
2021/05/30 06:03:21;;;;;;;17.77;16.15;;;14.90;99.90;;;;;;5026514;28;20537;-75
2021/05/30 06:05:48;;;;;;;17.55;16.00;;;14.90;99.90;;;;;;5005417;28;20072;-74
2021/05/30 06:08:15;;;;;;;17.95;16.40;;;14.90;99.90;;;;;;5041423;28;20397;-74
2021/05/30 06:10:41;;;;;;;17.20;15.80;;;15.20;99.90;;;;;;5017969;28;20053;-74
2021/05/30 06:13:11;;;;;;;17.83;16.13;;;15.10;99.90;;;;;;5009613;28;20519;-73
2021/05/30 06:15:40;;;;;;;18.05;16.50;;;15.30;99.90;;;;;;5024709;28;20053;-73
2021/05/30 06:18:16;;;;;;;17.90;16.20;;;15.00;99.90;;;;;;5019921;28;20091;-74
2021/05/30 06:20:45;;;;;;;18.60;16.17;;;14.70;99.90;;;;;;5015731;28;20135;-74
2021/05/30 06:23:13;;;;;;;17.95;16.08;;;14.50;99.90;;;;;;5003646;28;20343;-74
2021/05/30 06:25:43;;;;;;;17.23;15.68;;;14.80;99.90;;;;;;4995611;28;20342;-73
2021/05/30 06:28:11;;;;;;;16.73;15.45;;;14.80;99.90;;;;;;5005450;28;20053;-73
2021/05/30 06:30:40;;;;;;;18.98;17.20;;;14.80;99.90;;;;;;5001609;28;20053;-74
2021/05/30 06:33:08;;;;;;;18.67;17.20;;;14.50;99.90;;;;;;5021215;28;20048;-73
2021/05/30 06:35:38;;;;;;;19.67;17.63;;;14.90;99.90;;;;;;5023280;28;20060;-73
2021/05/30 06:38:06;;;;;;;18.33;16.88;;;14.70;99.90;;;;;;5019803;28;20230;-74
2021/05/30 06:40:33;;;;;;;19.00;17.40;;;14.90;99.90;;;;;;5041175;28;20049;-74
2021/05/30 06:43:00;;;;;;;20.05;18.05;;;15.40;99.90;;;;;;5026589;28;20102;-73
2021/05/30 06:45:27;;;;;;;20.30;18.30;;;15.50;99.90;;;;;;4996574;28;20334;-74
2021/05/30 06:47:55;;;;;;;19.58;17.80;;;15.50;99.90;;;;;;5020260;28;20347;-73
2021/05/30 06:50:24;;;;;;;19.05;17.30;;;15.30;99.90;;;;;;5032062;28;20104;-73
2021/05/30 06:52:51;;;;;;;19.55;17.80;;;14.70;99.90;;;;;;5001881;28;20110;-73
2021/05/30 06:55:22;;;;;;;20.58;18.80;;;14.30;99.90;;;;;;5008949;28;20405;-73
2021/05/30 06:57:49;;;;;;;18.67;17.00;;;14.80;99.90;;;;;;5040963;28;20049;-74
2021/05/30 07:00:16;;;;;;;19.08;17.48;;;15.40;99.90;;;;;;5005741;28;20033;-73
2021/05/30 07:02:44;;;;;;;19.25;17.52;;;15.40;99.90;;;;;;4996914;28;20103;-73
2021/05/30 07:05:11;;;;;;;18.77;17.08;;;15.80;99.90;;;;;;5023097;28;20037;-73
2021/05/30 07:07:39;;;;;;;18.33;16.73;;;16.10;99.90;;;;;;5042202;28;20059;-73
2021/05/30 07:10:06;;;;;;;19.92;18.08;;;15.00;99.90;;;;;;4997145;28;20394;-73
2021/05/30 07:12:33;;;;;;;19.52;17.85;;;14.90;99.90;;;;;;5046261;28;20277;-73
2021/05/30 07:15:01;;;;;;;18.85;17.30;;;14.60;99.90;;;;;;5031288;28;20128;-73
2021/05/30 07:17:28;;;;;;;18.73;16.90;;;14.70;99.90;;;;;;5046079;28;20122;-73
2021/05/30 07:19:57;;;;;;;21.02;17.50;;;14.90;99.90;;;;;;5001088;28;20144;-73
2021/05/30 07:22:28;;;;;;;18.88;17.08;;;15.30;99.90;;;;;;5015268;28;20271;-72
2021/05/30 07:24:55;;;;;;;18.70;16.98;;;15.40;99.90;;;;;;5023467;28;20049;-73
2021/05/30 07:27:22;;;;;;;19.75;18.00;;;15.60;99.90;;;;;;4990754;28;20424;-73
2021/05/30 07:29:48;;;;;;;17.98;16.35;;;15.70;99.90;;;;;;5024530;28;20416;-73
2021/05/30 07:32:15;;;;;;;17.23;15.73;;;15.90;99.90;;;;;;5045594;28;20045;-73
2021/05/30 07:34:42;;;;;;;17.20;15.73;;;15.60;99.90;;;;;;5042386;28;20521;-73
2021/05/30 07:37:09;;;;;;;17.75;16.20;;;16.20;99.90;;;;;;5003017;28;20041;-73
2021/05/30 07:39:35;;;;;;;17.55;16.15;;;16.30;99.90;;;;;;5041944;28;20508;-73
2021/05/30 07:42:02;;;;;;;17.63;16.00;;;16.30;99.90;;;;;;5026403;28;20068;-73
2021/05/30 07:44:29;;;;;;;16.60;15.23;;;16.70;99.90;;;;;;5021067;28;20410;-73
2021/05/30 07:46:57;;;;;;;16.30;15.10;;;17.40;99.90;;;;;;5004184;28;20049;-73
2021/05/30 07:49:24;;;;;;;16.38;15.07;;;17.60;99.90;;;;;;5006269;28;20619;-73
2021/05/30 07:51:51;;;;;;;18.65;17.05;;;17.70;99.90;;;;;;5005793;28;20709;-73
2021/05/30 07:54:18;;;;;;;18.08;16.60;;;17.80;99.90;;;;;;5003139;28;20123;-73
2021/05/30 07:56:45;;;;;;;17.92;16.42;;;18.20;99.90;;;;;;5000407;28;20053;-73
2021/05/30 07:59:12;;;;;;;17.15;15.85;;;18.50;99.90;;;;;;5009242;28;20052;-73
2021/05/30 08:01:39;;;;;;;18.73;17.17;;;18.80;99.90;;;;;;5008805;28;20044;-73
2021/05/30 08:04:06;;;;;;;17.70;16.40;;;19.00;99.90;;;;;;5003150;28;20112;-74
2021/05/30 08:06:33;;;;;;;17.55;15.70;;;19.20;99.90;;;;;;5024986;28;20049;-74
2021/05/30 08:09:00;;;;;;;19.00;17.25;;;19.50;99.90;;;;;;5024376;28;20099;-74
2021/05/30 08:11:28;;;;;;;17.40;16.30;;;19.70;99.90;;;;;;5023914;28;20102;-73
2021/05/30 08:13:55;;;;;;;16.85;15.60;;;18.90;99.90;;;;;;5026056;28;20110;-73
2021/05/30 08:16:42;;;;;;;15.18;14.27;;;18.90;99.90;;;;;;5018024;28;20059;-74
2021/05/30 08:19:10;;;;;;;17.08;15.80;;;19.50;99.90;;;;;;5020330;28;20052;-73
2021/05/30 08:21:37;;;;;;;17.45;15.95;;;19.50;99.90;;;;;;5006383;28;20037;-74
2021/05/30 08:24:04;;;;;;;16.67;15.45;;;19.00;99.90;;;;;;5055007;28;20056;-74
2021/05/30 08:26:47;;;;;;;15.85;14.82;;;18.40;99.90;;;;;;5016689;28;20495;-73
2021/05/30 08:29:14;;;;;;;16.50;15.32;;;19.00;99.90;;;;;;5029039;28;20139;-74
2021/05/30 08:31:41;;;;;;;16.85;15.48;;;19.60;99.90;;;;;;5035624;28;20519;-73
2021/05/30 08:34:07;;;;;;;16.48;15.32;;;19.70;99.90;;;;;;5026671;28;20048;-74
2021/05/30 08:36:34;;;;;;;15.77;14.63;;;20.10;99.90;;;;;;5045108;28;20440;-73
2021/05/30 08:39:02;;;;;;;15.48;14.00;;;20.50;99.90;;;;;;5026343;28;20178;-74
2021/05/30 08:41:29;;;;;;;14.70;13.80;;;20.90;99.90;;;;;;5026408;28;20048;-74
2021/05/30 08:43:55;;;;;;;15.50;14.40;;;21.10;99.90;;;;;;5023883;28;20537;-74
2021/05/30 08:46:22;;;;;;;17.08;15.90;;;21.10;99.90;;;;;;4983861;28;20177;-74
2021/05/30 08:48:49;;;;;;;16.60;15.40;;;21.10;99.90;;;;;;5008432;28;20044;-74
2021/05/30 08:51:16;;;;;;;16.95;15.63;;;21.10;99.90;;;;;;5025438;28;20048;-74
2021/05/30 08:53:43;;;;;;;16.48;15.38;;;20.30;99.90;;;;;;5025862;28;20501;-73
2021/05/30 08:56:12;;;;;;;16.35;15.35;;;19.80;99.90;;;;;;5025778;28;20052;-74
2021/05/30 08:58:51;;;;;;;17.10;15.90;;;19.90;99.90;;;;;;5027226;28;20079;-76
2021/05/30 09:01:23;;;;;;;16.55;15.18;;;20.40;99.90;;;;;;5026432;28;20324;-74
2021/05/30 09:04:02;;;;;;;16.30;15.02;;;20.70;99.90;;;;;;5025280;28;20057;-74
2021/05/30 09:06:29;;;;;;;15.98;14.88;;;20.80;99.90;;;;;;4999098;28;20065;-74
2021/05/30 09:08:56;;;;;;;14.75;13.75;;;20.50;99.90;;;;;;5023442;28;20067;-74
2021/05/30 09:11:43;;;;;;;15.05;13.85;;;20.50;99.90;;;;;;5006363;28;20111;-74
2021/05/30 09:14:16;;;;;;;13.85;13.05;;;20.60;99.90;;;;;;5026950;28;20174;-74
2021/05/30 09:16:52;;;;;;;14.32;13.10;;;21.20;99.90;;;;;;5009144;28;20045;-74
2021/05/30 09:19:34;;;;;;;13.48;12.68;;;21.40;99.90;;;;;;4992962;28;20087;-74
2021/05/30 09:22:32;;;;;;;13.80;12.90;;;21.50;99.90;;;;;;5017689;28;20053;-74
2021/05/30 09:25:12;;;;;;;12.38;11.77;;;21.10;99.70;;;;;;5032643;28;20496;-74
2021/05/30 09:27:49;;;;;;;12.55;11.85;;;20.90;99.90;;;;;;4987289;28;20048;-74
2021/05/30 09:30:27;;;;;;;12.88;12.18;;;20.30;99.90;;;;;;5044781;28;20055;-74
2021/05/30 09:33:04;;;;;;;12.50;11.90;;;20.20;99.90;;;;;;4849994;28;20042;-74
2021/05/30 09:35:37;;;;;;;13.88;13.07;;;19.90;99.90;;;;;;4993133;28;20076;-74
2021/05/30 09:38:08;;;;;;;12.60;11.75;;;20.60;99.90;;;;;;5024127;28;20532;-74
2021/05/30 09:40:42;;;;;;;12.85;12.07;;;20.90;99.90;;;;;;5003297;28;20103;-74
2021/05/30 09:43:15;;;;;;;11.87;11.17;;;21.30;99.90;;;;;;5005227;28;20045;-75
2021/05/30 09:46:04;;;;;;;11.70;11.00;;;21.20;97.60;;;;;;5004588;28;20045;-75
2021/05/30 09:48:33;;;;;;;11.52;10.95;;;21.40;95.70;;;;;;4999088;28;20046;-74
2021/05/30 09:51:06;;;;;;;12.10;11.40;;;21.40;94.40;;;;;;5016422;28;20053;-74
2021/05/30 09:53:35;;;;;;;12.52;11.82;;;21.10;96.50;;;;;;4986688;28;20709;-75
2021/05/30 09:56:02;;;;;;;11.85;11.18;;;21.20;97.40;;;;;;5006443;28;20484;-74
2021/05/30 09:58:29;;;;;;;13.13;12.13;;;21.10;95.10;;;;;;4998332;28;20066;-74
2021/05/30 10:00:55;;;;;;;12.32;11.73;;;21.50;97.00;;;;;;4980964;28;20132;-75
2021/05/30 10:03:24;;;;;;;11.82;11.20;;;21.80;95.20;;;;;;5004263;28;20393;-75
2021/05/30 10:05:50;;;;;;;11.73;11.13;;;22.10;93.10;;;;;;5018776;28;20069;-74
2021/05/30 10:08:18;;;;;;;12.77;11.85;;;21.90;92.50;;;;;;5021873;28;20065;-74
2021/05/30 10:10:46;;;;;;;11.77;11.18;;;21.70;91.00;;;;;;5005939;28;20096;-74
2021/05/30 10:13:13;;;;;;;13.20;12.50;;;21.90;91.30;;;;;;5003202;28;20370;-74
2021/05/30 10:15:41;;;;;;;12.52;11.93;;;20.50;93.30;;;;;;5005282;28;20429;-74
2021/05/30 10:18:18;;;;;;;12.20;11.50;;;20.10;96.30;;;;;;5004930;28;20049;-74
2021/05/30 10:20:47;;;;;;;11.75;11.20;;;20.70;93.50;;;;;;4986778;28;20052;-75
2021/05/30 10:23:17;;;;;;;11.70;11.13;;;21.20;90.90;;;;;;4989711;28;20069;-74
2021/05/30 10:25:44;;;;;;;12.30;11.70;;;21.50;92.00;;;;;;5023556;28;20425;-75
2021/05/30 10:28:31;;;;;;;12.07;11.48;;;21.10;91.70;;;;;;5005658;28;20053;-74
2021/05/30 10:31:26;;;;;;;11.38;10.70;;;20.50;92.10;;;;;;4988961;28;20052;-74
2021/05/30 10:34:09;;;;;;;12.75;11.93;;;20.90;91.90;;;;;;4997674;28;20073;-74
2021/05/30 10:36:54;;;;;;;12.25;11.52;;;21.20;91.20;;;;;;4999089;28;20413;-75
2021/05/30 10:39:31;;;;;;;12.15;11.35;;;21.30;92.00;;;;;;5063961;28;20633;-74
2021/05/30 10:42:11;;;;;;;11.98;11.30;;;21.50;91.90;;;;;;5060664;28;20048;-74
2021/05/30 10:44:49;;;;;;;11.35;10.80;;;21.50;92.50;;;;;;5058956;28;20067;-74
2021/05/30 10:47:17;;;;;;;12.75;12.00;;;20.80;82.90;;;;;;5047648;28;20044;-74
2021/05/30 10:50:09;;;;;;;12.50;11.90;;;20.40;91.20;;;;;;5046878;28;20055;-74
2021/05/30 10:52:48;;;;;;;12.65;11.90;;;19.90;92.30;;;;;;5044370;28;20041;-74
2021/05/30 10:55:17;;;;;;;13.57;12.82;;;19.90;93.20;;;;;;5039634;28;20425;-74
2021/05/30 10:57:49;;;;;;;13.38;12.48;;;19.70;94.50;;;;;;5038200;28;20152;-74
2021/05/30 11:00:18;;;;;;;12.68;11.98;;;19.70;95.20;;;;;;5024625;28;20228;-74
2021/05/30 11:05:42;;;;;;;13.13;12.45;;;20.50;93.80;;;;;;5056590;28;20064;-74
2021/05/30 11:08:28;;;;;;;13.63;12.85;;;21.20;94.20;;;;;;5058612;28;20061;-74
2021/05/30 11:11:17;;;;;;;12.85;12.15;;;21.20;93.90;;;;;;5036506;28;20148;-74
2021/05/30 11:13:55;;;;;;;12.35;11.55;;;21.30;96.90;;;;;;5038301;28;20037;-74
2021/05/30 11:16:24;;;;;;;19.10;17.30;;;21.30;95.30;;;;;;5039832;28;20048;-74
2021/05/30 11:19:06;;;;;;;13.75;12.93;;;20.10;96.70;;;;;;5058913;28;20114;-74
2021/05/30 11:21:43;;;;;;;12.68;11.88;;;20.40;96.90;;;;;;5068394;28;20511;-75
2021/05/30 11:24:20;;;;;;;12.18;11.38;;;20.80;95.90;;;;;;5066949;28;20048;-75
2021/05/30 11:26:55;;;;;;;13.60;12.75;;;21.20;93.90;;;;;;5062844;28;20049;-74
2021/05/30 11:29:23;;;;;;;14.32;13.43;;;21.00;95.50;;;;;;5058736;28;20296;-75
2021/05/30 11:31:56;;;;;;;14.18;12.88;;;19.90;96.90;;;;;;5056493;28;20442;-74
2021/05/30 11:34:30;;;;;;;14.07;13.18;;;19.50;99.70;;;;;;5041757;28;20048;-74
2021/05/30 11:37:09;;;;;;;14.13;13.13;;;18.90;97.00;;;;;;5057986;28;20405;-74
2021/05/30 11:39:42;;;;;;;14.35;13.30;;;18.60;98.90;;;;;;5044110;28;20055;-74
2021/05/30 11:42:09;;;;;;;13.68;12.75;;;19.30;99.90;;;;;;5055170;28;20269;-74
2021/05/30 11:44:36;;;;;;;14.02;12.93;;;19.80;99.90;;;;;;5039775;28;20045;-74
2021/05/30 11:47:05;;;;;;;13.57;12.57;;;19.30;97.80;;;;;;5038265;28;20179;-74
2021/05/30 11:49:34;;;;;;;13.25;12.30;;;19.60;99.40;;;;;;5050951;28;20048;-74
2021/05/30 11:52:07;;;;;;;13.82;12.75;;;19.20;99.90;;;;;;5040327;28;20059;-74
2021/05/30 11:54:35;;;;;;;12.73;11.93;;;19.10;98.50;;;;;;5054430;28;20049;-74
2021/05/30 11:57:05;;;;;;;12.80;12.02;;;19.40;99.90;;;;;;5033141;28;20044;-74
2021/05/30 11:59:39;;;;;;;12.32;11.63;;;20.30;98.10;;;;;;5008815;28;20044;-74
2021/05/30 12:02:07;;;;;;;14.98;13.98;;;20.50;99.70;;;;;;5051606;28;20053;-74
2021/05/30 12:04:36;;;;;;;13.80;13.10;;;19.40;98.40;;;;;;5048814;28;20424;-74
2021/05/30 12:07:06;;;;;;;14.30;13.40;;;19.20;97.80;;;;;;5043512;28;20059;-74
2021/05/30 12:09:42;;;;;;;14.05;13.15;;;19.80;99.30;;;;;;5026773;28;20064;-74
2021/05/30 12:12:35;;;;;;;13.70;13.00;;;20.20;98.90;;;;;;5043732;28;20136;-74
2021/05/30 12:15:07;;;;;;;12.95;12.20;;;20.80;97.20;;;;;;5035755;28;20065;-74
2021/05/30 12:17:35;;;;;;;13.73;12.77;;;21.10;97.00;;;;;;5044592;28;20060;-74
2021/05/30 12:20:05;;;;;;;13.85;13.07;;;19.70;97.60;;;;;;5050882;28;20186;-74
2021/05/30 12:22:34;;;;;;;14.05;13.15;;;19.20;99.40;;;;;;5022530;28;20037;-74
2021/05/30 12:25:01;;;;;;;13.30;12.30;;;19.50;99.90;;;;;;5043069;28;20063;-74
2021/05/30 12:27:32;;;;;;;13.48;12.68;;;19.70;97.90;;;;;;5041567;28;20525;-74
2021/05/30 12:29:59;;;;;;;13.40;12.60;;;19.60;97.20;;;;;;5041248;28;20067;-74
2021/05/30 12:32:26;;;;;;;12.60;11.80;;;19.90;97.40;;;;;;5053180;28;20052;-74
2021/05/30 12:34:52;;;;;;;12.02;11.38;;;19.80;98.30;;;;;;5042934;28;20049;-74
2021/05/30 12:37:38;;;;;;;12.77;11.95;;;20.50;97.20;;;;;;5026012;28;20292;-74
2021/05/30 12:40:06;;;;;;;13.15;12.35;;;20.70;96.90;;;;;;5034093;28;20037;-74
2021/05/30 12:42:33;;;;;;;13.30;12.40;;;20.10;95.30;;;;;;5042802;28;20329;-74
2021/05/30 12:45:06;;;;;;;12.77;12.07;;;20.20;98.60;;;;;;5042726;28;20401;-74